Time;durP1;ratioP1;P1;durP2;ratioP2;P2;SDS_P1;SDS_P2;PMS_P1;PMS_P2;Temp;Humidity;BMP_temperature;BMP_pressure;BME280_temperature;BME280_humidity;BME280_pressure;Samples;Min_cycle;Max_cycle;Signal;HPM_P1;HPM_P2
2023/10/18 00:02:18;;;;;;;0.30;0.30;;;;;;;9.45;100.00;100952.78;4974676;28;20031;-81
2023/10/18 00:08:09;;;;;;;2.35;2.13;;;;;;;8.89;100.00;100859.50;4974842;28;20038;-80
2023/10/18 00:10:35;;;;;;;0.30;0.30;;;;;;;9.07;100.00;100861.53;4973749;28;20050;-78
2023/10/18 00:13:00;;;;;;;3.03;1.77;;;;;;;8.91;100.00;100876.13;4972303;28;20372;-80
2023/10/18 00:18:47;;;;;;;0.30;0.30;;;;;;;9.30;100.00;100943.00;4973121;28;20057;-80
2023/10/18 00:21:13;;;;;;;0.40;0.40;;;;;;;8.78;100.00;100855.88;4973605;28;20463;-80
2023/10/18 00:23:39;;;;;;;1.55;1.45;;;;;;;8.88;100.00;100871.72;4974970;28;20031;-81
2023/10/18 00:26:09;;;;;;;0.52;0.52;;;;;;;9.32;100.00;100951.75;4972467;28;20043;-77
2023/10/18 00:29:01;;;;;;;0.30;0.30;;;;;;;9.40;100.00;100960.59;4971398;28;20051;-79
2023/10/18 00:32:04;;;;;;;0.55;0.55;;;;;;;9.51;100.00;100950.25;4954709;28;20050;-78
2023/10/18 00:41:53;;;;;;;0.20;0.20;;;;;;;9.33;100.00;100948.28;4955521;28;20459;-80
2023/10/18 00:44:21;;;;;;;0.20;0.20;;;;;;;9.14;100.00;100909.59;4953074;28;20039;-80
2023/10/18 00:46:51;;;;;;;2.13;1.98;;;;;;;9.21;100.00;100921.91;4954321;28;20039;-79
2023/10/18 00:49:17;;;;;;;1.17;1.08;;;;;;;9.13;100.00;100919.22;4954233;28;20043;-78
2023/10/18 01:05:47;;;;;;;0.35;0.35;;;;;;;9.46;100.00;100926.63;4972947;28;20125;-81
2023/10/18 01:08:56;;;;;;;0.65;0.65;;;;;;;9.49;100.00;100931.03;4974451;28;20051;-80
2023/10/18 01:11:31;;;;;;;0.40;0.40;;;;;;;9.35;100.00;100929.97;4952366;28;20054;-78
2023/10/18 01:14:00;;;;;;;0.30;0.30;;;;;;;9.35;100.00;100932.59;4966755;28;20133;-79
2023/10/18 01:16:35;;;;;;;2.55;2.33;;;;;;;9.23;100.00;100897.50;4969944;28;20037;-79
2023/10/18 01:19:01;;;;;;;0.40;0.40;;;;;;;9.29;100.00;100912.41;4972074;28;20090;-78
2023/10/18 01:21:27;;;;;;;0.20;0.20;;;;;;;9.60;100.00;100931.13;4967622;28;20126;-78
2023/10/18 01:23:56;;;;;;;0.20;0.20;;;;;;;8.95;100.00;100843.03;4972892;28;20031;-78
2023/10/18 01:36:31;;;;;;;2.92;2.60;;;;;;;8.50;100.00;100820.56;4977316;28;20102;-79
2023/10/18 01:38:58;;;;;;;1.27;0.93;;;;;;;9.12;100.00;100924.41;4975468;28;20034;-79
2023/10/18 01:41:29;;;;;;;0.85;0.65;;;;;;;9.24;100.00;100940.28;4975752;28;20041;-79
2023/10/18 01:43:59;;;;;;;0.30;0.30;;;;;;;8.95;100.00;100911.09;4976916;28;20117;-78
2023/10/18 01:46:24;;;;;;;0.52;0.52;;;;;;;8.33;100.00;100823.78;5006492;28;20125;-79
2023/10/18 01:48:55;;;;;;;0.85;0.85;;;;;;;8.88;100.00;100865.63;4973394;28;20066;-77
2023/10/18 01:51:21;;;;;;;6.97;6.68;;;;;;;8.47;100.00;100823.16;4976683;28;20031;-80
2023/10/18 01:53:47;;;;;;;0.30;0.30;;;;;;;8.98;100.00;100927.69;4976476;28;20039;-80
2023/10/18 01:56:13;;;;;;;2.22;1.80;;;;;;;8.81;100.00;100853.31;4975693;28;20189;-80
2023/10/18 01:59:29;;;;;;;0.63;0.63;;;;;;;8.94;100.00;100944.22;4977326;28;20073;-80
2023/10/18 02:05:17;;;;;;;1.08;0.98;;;;;;;8.56;100.00;100910.47;4958106;28;20174;-80
2023/10/18 02:07:47;;;;;;;2.15;0.90;;;;;;;8.78;100.00;100947.44;4957090;28;20055;-80
2023/10/18 02:10:21;;;;;;;1.23;1.20;;;;;;;8.62;100.00;100917.56;4957221;28;20031;-80
2023/10/18 02:12:46;;;;;;;0.25;0.25;;;;;;;8.11;100.00;100850.44;4956874;28;20062;-79
2023/10/18 02:18:34;;;;;;;0.30;0.30;;;;;;;8.13;100.00;100851.34;4957287;28;20058;-79
2023/10/18 02:24:20;;;;;;;0.30;0.30;;;;;;;8.50;100.00;100865.94;4957051;28;20043;-81
2023/10/18 02:26:56;;;;;;;4.32;2.03;;;;;;;9.09;100.00;100947.06;4987611;28;20379;-80
2023/10/18 02:29:22;;;;;;;0.22;0.22;;;;;;;8.43;100.00;100867.56;4957289;28;20023;-81
2023/10/18 02:31:49;;;;;;;0.40;0.40;;;;;;;7.89;100.00;100843.94;4956499;28;20036;-81
2023/10/18 02:38:08;;;;;;;0.77;0.70;;;;;;;8.70;100.00;100959.53;4966400;28;20402;-80
2023/10/18 02:43:57;;;;;;;1.13;1.05;;;;;;;8.66;100.00;100935.03;4976491;28;20065;-80
2023/10/18 02:46:24;;;;;;;2.08;1.85;;;;;;;7.85;100.00;100850.84;5004028;28;20422;-80
2023/10/18 02:48:57;;;;;;;0.40;0.40;;;;;;;8.57;100.00;100961.94;4973396;28;20424;-78
2023/10/18 02:51:26;;;;;;;1.75;1.65;;;;;;;8.43;100.00;100937.31;4975631;28;20026;-79
2023/10/18 02:53:53;;;;;;;0.45;0.45;;;;;;;7.76;100.00;100862.00;4975062;28;20030;-77
2023/10/18 02:56:32;;;;;;;0.55;0.55;;;;;;;7.64;100.00;100835.66;4956326;28;20476;-80
2023/10/18 03:02:24;;;;;;;5.45;0.70;;;;;;;7.82;100.00;100846.47;4957102;28;20042;-78
2023/10/18 03:05:24;;;;;;;0.32;0.32;;;;;;;8.37;100.00;100958.06;4964861;28;20047;-78
2023/10/18 03:11:03;;;;;;;0.30;0.30;;;;;;;8.23;100.00;100955.19;4953645;28;20054;-77
2023/10/18 03:13:28;;;;;;;0.32;0.32;;;;;;;8.25;100.00;100972.69;4959612;28;20082;-77
2023/10/18 03:18:39;;;;;;;0.60;0.60;;;;;;;8.07;100.00;100946.19;4973760;28;20039;-79
2023/10/18 03:21:06;;;;;;;0.25;0.25;;;;;;;7.32;100.00;100840.25;4973914;28;20085;-77
2023/10/18 03:23:32;;;;;;;1.25;1.15;;;;;;;7.90;100.00;100955.44;4973031;28;20083;-78
2023/10/18 03:26:07;;;;;;;1.00;0.88;;;;;;;7.99;100.00;100979.16;4969758;28;20077;-79
2023/10/18 03:28:40;;;;;;;5.57;5.30;;;;;;;7.93;100.00;100973.78;4975033;28;20451;-80
2023/10/18 03:31:27;;;;;;;3.67;3.47;;;;;;;8.09;100.00;100970.63;4954372;28;20042;-79
2023/10/18 03:34:01;;;;;;;0.35;0.35;;;;;;;7.15;100.00;100851.22;4955571;28;20488;-78
2023/10/18 03:36:27;;;;;;;1.45;0.90;;;;;;;6.92;100.00;100810.72;4961658;28;20042;-78
2023/10/18 03:39:15;;;;;;;3.83;2.83;;;;;;;7.74;100.00;100965.59;4971677;28;20022;-79
2023/10/18 03:41:41;;;;;;;0.20;0.20;;;;;;;7.75;100.00;100974.28;4973467;28;20039;-79
2023/10/18 03:44:08;;;;;;;0.90;0.75;;;;;;;6.95;100.00;100850.81;5003505;28;20419;-78
2023/10/18 03:46:49;;;;;;;0.50;0.50;;;;;;;7.54;100.00;100956.47;4972389;28;20101;-78
2023/10/18 03:52:36;;;;;;;0.60;0.60;;;;;;;6.95;100.00;100860.34;4974643;28;20129;-80
2023/10/18 03:57:54;;;;;;;4.72;4.47;;;;;;;7.36;100.00;100949.13;4974550;28;20064;-80
2023/10/18 04:03:08;;;;;;;0.55;0.55;;;;;;;7.19;100.00;100894.81;4973979;28;20023;-79
2023/10/18 04:06:21;;;;;;;0.55;0.55;;;;;;;7.46;100.00;100979.78;4975034;28;20037;-79
2023/10/18 04:08:47;;;;;;;0.70;0.70;;;;;;;6.86;100.00;100852.31;4974020;28;20047;-80
2023/10/18 04:11:13;;;;;;;0.30;0.30;;;;;;;7.87;100.00;100963.25;4974593;28;20029;-78
2023/10/18 04:17:06;;;;;;;0.68;0.68;;;;;;;7.34;100.00;100875.09;4974179;28;20122;-78
2023/10/18 04:19:31;;;;;;;0.30;0.30;;;;;;;7.90;100.00;100973.75;4974077;28;20041;-79
2023/10/18 04:21:57;;;;;;;0.82;0.77;;;;;;;7.47;100.00;100959.78;4974289;28;20039;-79
2023/10/18 04:24:24;;;;;;;0.40;0.40;;;;;;;7.72;100.00;100964.66;4973632;28;20113;-77
2023/10/18 04:30:16;;;;;;;3.10;2.95;;;;;;;7.98;100.00;100974.75;4973646;28;20141;-81
2023/10/18 04:32:45;;;;;;;0.63;0.63;;;;;;;7.91;100.00;100951.97;4973926;28;20104;-81
2023/10/18 04:35:15;;;;;;;0.20;0.20;;;;;;;7.58;100.00;100969.59;4973060;28;20042;-80
2023/10/18 04:41:07;;;;;;;0.22;0.22;;;;;;;7.85;100.00;100954.50;4973814;28;20080;-84
2023/10/18 04:43:34;;;;;;;0.40;0.40;;;;;;;8.07;100.00;100968.84;4972868;28;20042;-79
2023/10/18 04:46:04;;;;;;;0.50;0.47;;;;;;;7.89;100.00;100972.88;4972983;28;20049;-80
2023/10/18 04:51:26;;;;;;;0.30;0.30;;;;;;;7.43;100.00;100981.47;4973147;28;20070;-81
2023/10/18 04:54:59;;;;;;;0.75;0.73;;;;;;;7.59;100.00;100981.81;4971593;28;20027;-81
2023/10/18 05:00:59;;;;;;;0.30;0.30;;;;;;;7.15;100.00;100953.00;4973358;28;20038;-79
2023/10/18 05:03:30;;;;;;;0.63;0.63;;;;;;;6.74;100.00;100889.44;4972765;28;20031;-81
2023/10/18 05:05:59;;;;;;;0.35;0.35;;;;;;;7.34;100.00;100980.41;4971691;28;20026;-80
2023/10/18 05:11:55;;;;;;;0.30;0.30;;;;;;;6.81;100.00;100899.16;4954264;28;20049;-81
2023/10/18 05:14:35;;;;;;;0.40;0.40;;;;;;;7.01;100.00;100940.50;4957513;28;20026;-80
2023/10/18 05:17:49;;;;;;;0.30;0.30;;;;;;;7.49;100.00;101019.03;4965443;28;20461;-80
2023/10/18 05:22:52;;;;;;;0.30;0.30;;;;;;;7.63;100.00;101013.22;4953637;28;20045;-80
2023/10/18 05:29:01;;;;;;;0.20;0.20;;;;;;;7.92;100.00;101006.88;4954164;28;20083;-81
2023/10/18 05:32:05;;;;;;;0.30;0.30;;;;;;;6.90;100.00;100909.81;4959821;28;20513;-81
2023/10/18 05:37:59;;;;;;;0.20;0.20;;;;;;;7.80;100.00;101011.88;4953596;28;20416;-79
2023/10/18 05:43:47;;;;;;;6.80;6.53;;;;;;;7.47;100.00;100955.47;4972455;28;20097;-79
2023/10/18 05:56:32;;;;;;;0.30;0.30;;;;;;;7.64;100.00;100916.63;4954033;28;20395;-79
2023/10/18 06:01:47;;;;;;;1.63;1.20;;;;;;;8.28;100.00;101038.94;4953387;28;20406;-80
2023/10/18 06:07:35;;;;;;;0.20;0.20;;;;;;;8.42;100.00;101032.28;4953113;28;20098;-80
2023/10/18 06:10:13;;;;;;;0.30;0.30;;;;;;;8.67;100.00;101020.53;4954507;28;20424;-78
2023/10/18 06:12:46;;;;;;;0.30;0.30;;;;;;;8.22;100.00;100919.47;4956780;28;20146;-78
2023/10/18 06:18:37;;;;;;;0.88;0.88;;;;;;;8.73;100.00;101022.38;4956485;28;20051;-78
2023/10/18 06:28:24;;;;;;;0.30;0.30;;;;;;;9.30;100.00;101013.72;4975622;28;20065;-80
2023/10/18 06:30:54;;;;;;;0.30;0.30;;;;;;;9.07;100.00;101009.00;4975220;28;20441;-80
2023/10/18 06:33:21;;;;;;;0.40;0.40;;;;;;;8.44;100.00;100923.34;5005365;28;20047;-78
2023/10/18 06:39:25;;;;;;;0.20;0.20;;;;;;;8.87;100.00;100904.00;4973954;28;20053;-77
2023/10/18 06:41:55;;;;;;;1.02;0.98;;;;;;;9.07;100.00;100925.22;4966161;28;20030;-80
2023/10/18 06:44:27;;;;;;;1.30;0.73;;;;;;;9.70;100.00;101023.00;4972428;28;20027;-81
2023/10/18 06:46:53;;;;;;;1.77;1.67;;;;;;;8.98;100.00;100919.84;4975523;28;20046;-80
2023/10/18 06:52:44;;;;;;;1.65;1.55;;;;;;;9.70;100.00;101023.00;4975495;28;20603;-79
2023/10/18 06:55:15;;;;;;;3.17;2.88;;;;;;;9.55;100.00;101027.13;4975564;28;20034;-79
2023/10/18 06:57:42;;;;;;;0.30;0.30;;;;;;;8.61;100.00;100940.19;4975471;28;20039;-79
2023/10/18 07:07:13;;;;;;;0.30;0.30;;;;;;;9.71;100.00;101035.22;4975315;28;20054;-81
2023/10/18 07:09:42;;;;;;;0.20;0.20;;;;;;;9.41;100.00;101014.75;4975065;28;20045;-81
2023/10/18 07:12:11;;;;;;;0.82;0.82;;;;;;;8.87;100.00;100926.66;4974905;28;20042;-82
2023/10/18 07:18:36;;;;;;;0.80;0.80;;;;;;;9.74;100.00;101042.28;4973715;28;20053;-79
2023/10/18 07:21:09;;;;;;;0.93;0.88;;;;;;;9.59;100.00;101029.81;4954608;28;20090;-81
2023/10/18 07:23:37;;;;;;;;;;;;;;;9.58;100.00;101043.81;4955744;28;20480;-80
2023/10/18 07:26:07;;;;;;;1.42;1.38;;;;;;;9.37;100.00;100931.75;4972420;28;20081;-80
2023/10/18 07:28:35;;;;;;;0.73;0.63;;;;;;;9.40;100.00;100947.50;4972723;28;20039;-80
2023/10/18 07:37:44;;;;;;;0.30;0.30;;;;;;;9.62;100.00;101003.69;4973115;28;20109;-75
2023/10/18 07:40:21;;;;;;;2.10;1.92;;;;;;;10.21;100.00;101026.25;4974371;28;20423;-76
2023/10/18 07:42:51;;;;;;;0.60;0.60;;;;;;;10.28;100.00;101019.34;4955976;28;20043;-75
2023/10/18 07:45:21;;;;;;;0.25;0.25;;;;;;;9.69;100.00;100929.53;4953846;28;20122;-77
2023/10/18 07:47:53;;;;;;;0.30;0.30;;;;;;;10.11;100.00;100998.16;4955048;28;20035;-77
2023/10/18 07:50:34;;;;;;;0.20;0.20;;;;;;;9.70;100.00;100912.06;4968371;28;20366;-76
2023/10/18 07:56:29;;;;;;;10.35;5.55;;;;;;;10.50;100.00;101013.47;4974764;28;20093;-77
2023/10/18 08:05:50;;;;;;;0.20;0.20;;;;;;;10.28;100.00;100901.31;4972919;28;20038;-77
2023/10/18 08:11:37;;;;;;;2.90;2.47;;;;;;;11.16;100.00;101010.53;4973821;28;20101;-76
2023/10/18 08:14:16;;;;;;;1.30;1.20;;;;;;;11.11;100.00;101018.38;4972344;28;20039;-77
2023/10/18 08:16:51;;;;;;;8.98;3.00;;;;;;;11.14;100.00;101009.63;4974508;28;20039;-77
2023/10/18 08:20:17;;;;;;;1.30;1.20;;;;;;;12.06;100.00;100996.13;4972321;28;20081;-73
2023/10/18 08:29:23;;;;;;;0.40;0.40;;;;;;;11.87;100.00;100956.66;4974788;28;20534;-75
2023/10/18 08:31:54;;;;;;;1.13;0.98;;;;;;;11.98;100.00;101001.38;4971003;28;20121;-73
2023/10/18 08:34:20;;;;;;;1.45;1.27;;;;;;;11.61;100.00;100868.03;4971913;28;20034;-72
2023/10/18 08:36:45;;;;;;;2.58;1.52;;;;;;;13.03;100.00;101000.66;4970132;28;20459;-73
2023/10/18 08:46:06;;;;;;;1.25;1.15;;;;;;;13.52;100.00;101005.88;4973169;28;20041;-72
2023/10/18 08:48:38;;;;;;;0.85;0.85;;;;;;;12.99;100.00;100983.09;4970840;28;20034;-80
2023/10/18 08:51:04;;;;;;;1.90;1.50;;;;;;;12.91;100.00;101000.66;4954035;28;20085;-73
2023/10/18 08:53:31;;;;;;;0.63;0.50;;;;;;;13.14;100.00;100910.19;4971564;28;20110;-74
2023/10/18 08:59:50;;;;;;;1.98;1.70;;;;;;;13.68;100.00;100982.13;4973112;28;20101;-74
2023/10/18 09:02:54;;;;;;;0.75;0.60;;;;;;;13.09;100.00;100982.22;4970168;28;20035;-74
2023/10/18 09:08:42;;;;;;;2.47;2.25;;;;;;;13.50;100.00;100976.00;4954237;28;20050;-73
2023/10/18 09:11:21;;;;;;;1.27;1.17;;;;;;;13.66;100.00;100978.59;4952305;29;20480;-73
2023/10/18 09:14:07;;;;;;;4.32;2.35;;;;;;;13.55;100.00;100964.56;4953577;28;20481;-75
2023/10/18 09:17:21;;;;;;;2.85;2.05;;;;;;;13.66;100.00;100974.19;4965579;28;20043;-76
2023/10/18 09:23:20;;;;;;;3.92;2.83;;;;;;;13.64;100.00;100952.22;4965002;28;20088;-75
2023/10/18 09:25:49;;;;;;;1.83;1.10;;;;;;;13.98;100.00;100967.00;4953730;28;20090;-73
2023/10/18 09:28:25;;;;;;;3.83;1.40;;;;;;;13.38;100.00;100875.88;4953848;28;20130;-74
2023/10/18 09:34:12;;;;;;;6.47;3.05;;;;;;;13.78;100.00;100935.47;4953747;28;20391;-74
2023/10/18 09:40:37;;;;;;;5.65;2.90;;;;;;;14.57;100.00;100952.63;4972920;28;20049;-76
2023/10/18 09:43:03;;;;;;;1.10;0.93;;;;;;;14.38;100.00;100958.91;4971181;28;20042;-74
2023/10/18 09:45:28;;;;;;;0.40;0.40;;;;;;;14.45;100.00;100950.91;4974340;28;20034;-76
2023/10/18 09:47:58;;;;;;;1.15;1.08;;;;;;;13.70;100.00;100841.44;4975276;28;20478;-75
2023/10/18 09:53:50;;;;;;;0.45;0.45;;;;;;;14.42;100.00;100921.00;4957599;29;20519;-77
2023/10/18 09:56:33;;;;;;;1.02;1.02;;;;;;;14.67;100.00;100964.84;4955102;28;20031;-76
2023/10/18 09:59:08;;;;;;;5.07;2.23;;;;;;;14.76;100.00;100934.84;4954007;28;20055;-77
2023/10/18 10:05:03;;;;;;;0.80;0.70;;;;;;;15.16;100.00;100950.31;4955455;28;20046;-76
2023/10/18 10:07:37;;;;;;;3.50;1.05;;;;;;;14.94;100.00;100939.09;4956594;28;20067;-74
2023/10/18 10:10:17;;;;;;;1.42;1.33;;;;;;;14.69;100.00;100838.91;4956320;28;20050;-74
2023/10/18 10:12:45;;;;;;;1.85;1.33;;;;;;;15.04;100.00;100919.59;4956209;28;20063;-73
2023/10/18 10:15:13;;;;;;;7.82;1.50;;;;;;;15.13;100.00;100940.66;4956318;28;20039;-74
2023/10/18 10:17:55;;;;;;;0.75;0.73;;;;;;;15.47;100.00;100931.47;4954360;28;20023;-73
2023/10/18 10:20:21;;;;;;;0.90;0.70;;;;;;;14.80;100.00;100854.66;4948633;28;20045;-74
2023/10/18 10:22:49;;;;;;;2.10;1.23;;;;;;;15.24;100.00;100865.63;4953306;28;20039;-73
2023/10/18 10:32:06;;;;;;;0.55;0.50;;;;;;;15.17;100.00;100925.63;4956483;28;20395;-73
2023/10/18 10:34:38;;;;;;;1.05;0.85;;;;;;;15.69;100.00;100917.09;4974406;28;20065;-72
2023/10/18 10:44:30;;;;;;;1.13;1.02;;;;;;;16.70;100.00;100917.38;4975324;28;20050;-74
2023/10/18 10:47:30;;;;;;;0.20;0.17;;;;;;;17.37;100.00;100906.44;4970507;28;20051;-75
2023/10/18 10:56:49;;;;;;;0.50;0.32;;;;;;;16.36;100.00;100800.50;4958577;28;20439;-75
2023/10/18 11:02:40;;;;;;;0.63;0.50;;;;;;;17.60;100.00;100839.63;4959173;28;20050;-76
2023/10/18 11:08:27;;;;;;;2.70;0.80;;;;;;;16.61;100.00;100770.00;4972181;28;20062;-76
2023/10/18 11:10:57;;;;;;;0.55;0.55;;;;;;;16.24;100.00;100775.97;4955016;28;20472;-75
2023/10/18 11:13:25;;;;;;;2.45;1.65;;;;;;;17.93;100.00;100838.91;4955767;28;20047;-75
2023/10/18 11:22:35;;;;;;;0.20;0.20;;;;;;;16.21;100.00;100839.59;4975263;28;20042;-75
2023/10/18 11:25:01;;;;;;;0.50;0.50;;;;;;;16.17;100.00;100787.56;4974759;28;20034;-76
2023/10/18 11:27:34;;;;;;;0.20;0.20;;;;;;;15.84;100.00;100746.66;4974456;28;20030;-74
2023/10/18 11:30:24;;;;;;;1.63;1.52;;;;;;;15.77;100.00;100735.31;5004249;28;20038;-75
2023/10/18 11:32:54;;;;;;;0.40;0.40;;;;;;;16.93;100.00;100736.75;4955065;28;20086;-75
2023/10/18 11:39:07;;;;;;;0.50;0.35;;;;;;;16.54;100.00;100762.22;4955640;28;20054;-74
2023/10/18 11:41:28;;;;;;;0.20;0.20;;;;;;;15.93;100.00;100769.47;4958045;28;20031;-75
2023/10/18 11:43:55;;;;;;;0.75;0.73;;;;;;;15.65;100.00;100759.28;4975427;28;20054;-75
2023/10/18 11:46:51;;;;;;;0.32;0.32;;;;;;;16.74;100.00;100846.63;4975235;28;20062;-77
2023/10/18 11:53:15;;;;;;;2.25;1.05;;;;;;;17.30;99.81;100836.72;4965796;28;20034;-73
2023/10/18 11:55:57;;;;;;;0.40;0.40;;;;;;;17.25;100.00;100799.66;4995016;28;20042;-75
2023/10/18 11:58:25;;;;;;;1.38;1.27;;;;;;;17.50;100.00;100828.34;4974125;28;20383;-76
2023/10/18 12:01:00;;;;;;;0.30;0.30;;;;;;;16.52;100.00;100820.53;4972336;28;20057;-77
2023/10/18 12:03:33;;;;;;;0.30;0.30;;;;;;;17.29;100.00;100824.38;4970364;28;20100;-75
2023/10/18 12:06:00;;;;;;;1.07;0.80;;;;;;;17.45;99.32;100827.56;4973724;28;20436;-74
2023/10/18 12:08:30;;;;;;;0.20;0.20;;;;;;;16.91;94.98;100733.25;4973910;28;20773;-75
2023/10/18 12:10:57;;;;;;;0.68;0.68;;;;;;;17.68;100.00;100816.44;4973777;28;20394;-76
2023/10/18 12:13:24;;;;;;;0.10;0.10;;;;;;;17.02;92.89;100723.28;4973676;28;20391;-75
2023/10/18 12:19:11;;;;;;;0.88;0.88;;;;;;;16.71;95.71;100738.03;4973611;28;20053;-75
2023/10/18 12:21:37;;;;;;;2.45;1.58;;;;;;;16.87;95.46;100732.41;4970197;28;20042;-76
2023/10/18 12:24:07;;;;;;;0.65;0.65;;;;;;;17.25;100.00;100722.75;4972216;28;20439;-76
2023/10/18 12:33:22;;;;;;;0.50;0.43;;;;;;;17.95;98.96;100806.97;4973540;28;20514;-74
2023/10/18 12:35:48;;;;;;;0.60;0.50;;;;;;;17.06;94.49;100780.63;4973436;28;20161;-76
2023/10/18 12:38:15;;;;;;;1.00;0.40;;;;;;;16.79;99.83;100773.25;4971802;28;20470;-76
2023/10/18 12:40:58;;;;;;;1.45;1.35;;;;;;;17.36;100.00;100767.63;4973045;28;20050;-76
2023/10/18 12:47:32;;;;;;;0.45;0.45;;;;;;;17.71;100.00;100797.78;4973610;28;20069;-76
2023/10/18 12:50:30;;;;;;;0.75;0.50;;;;;;;17.19;99.56;100804.25;4969351;28;20336;-77
2023/10/18 13:07:28;;;;;;;0.90;0.68;;;;;;;16.42;100.00;100763.31;4953790;28;20047;-77
2023/10/18 13:09:54;;;;;;;0.20;0.20;;;;;;;16.18;100.00;100707.25;4953882;28;20039;-78
2023/10/18 13:15:41;;;;;;;0.60;0.55;;;;;;;16.10;100.00;100705.66;4953869;28;20066;-77
2023/10/18 13:18:06;;;;;;;0.85;0.60;;;;;;;16.06;100.00;100730.41;4954756;28;20039;-81
2023/10/18 13:20:34;;;;;;;0.40;0.40;;;;;;;15.99;100.00;100722.59;4967143;28;20081;-80
2023/10/18 13:23:01;;;;;;;2.58;0.70;;;;;;;15.68;100.00;100645.47;4977467;28;20035;-79
2023/10/18 13:31:45;;;;;;;0.68;0.55;;;;;;;15.87;100.00;100648.69;4974501;28;20074;-77
2023/10/18 13:34:18;;;;;;;7.32;2.30;;;;;;;16.41;100.00;100743.91;4976526;28;20042;-79
2023/10/18 13:36:48;;;;;;;0.57;0.47;;;;;;;16.40;100.00;100755.41;4973526;28;20134;-79
2023/10/18 13:39:16;;;;;;;1.67;1.15;;;;;;;16.24;100.00;100723.03;4960953;28;20043;-76
2023/10/18 13:41:46;;;;;;;2.50;2.33;;;;;;;15.79;100.00;100661.19;4957677;28;20034;-76
2023/10/18 13:47:42;;;;;;;4.57;2.15;;;;;;;15.73;100.00;100613.69;4977238;28;20367;-80
2023/10/18 13:50:10;;;;;;;2.70;1.30;;;;;;;16.18;100.00;100709.91;4972677;28;20126;-75
2023/10/18 13:52:37;;;;;;;1.23;1.13;;;;;;;15.65;100.00;100636.72;4973204;28;20398;-77
2023/10/18 13:55:03;;;;;;;0.30;0.30;;;;;;;15.70;100.00;100638.41;4974460;28;20066;-78
2023/10/18 14:00:51;;;;;;;2.25;1.55;;;;;;;15.91;100.00;100711.25;4972713;28;20090;-76
2023/10/18 14:03:19;;;;;;;0.75;0.63;;;;;;;16.12;100.00;100710.00;4967932;28;20094;-77
2023/10/18 14:05:45;;;;;;;2.33;1.40;;;;;;;16.02;100.00;100698.72;4955142;28;20023;-78
2023/10/18 14:08:21;;;;;;;0.88;0.82;;;;;;;15.82;100.00;100706.13;4966330;28;20443;-78
2023/10/18 14:10:47;;;;;;;2.20;1.00;;;;;;;15.89;100.00;100678.66;4974092;28;20422;-79
2023/10/18 14:13:14;;;;;;;1.13;1.08;;;;;;;15.95;100.00;100690.94;4969551;28;20046;-78
2023/10/18 14:22:32;;;;;;;1.30;1.17;;;;;;;15.83;100.00;100669.06;4975997;28;20094;-80
2023/10/18 14:24:59;;;;;;;0.75;0.73;;;;;;;16.23;100.00;100705.41;4957592;28;20040;-76
2023/10/18 14:27:28;;;;;;;1.50;1.00;;;;;;;16.29;100.00;100708.81;4974357;28;20471;-78
2023/10/18 14:33:15;;;;;;;1.95;1.55;;;;;;;16.08;100.00;100692.44;4972697;28;20038;-78
2023/10/18 14:39:03;;;;;;;3.67;1.17;;;;;;;15.60;100.00;100620.94;4975832;28;20045;-81
2023/10/18 14:42:00;;;;;;;2.53;2.00;;;;;;;15.76;100.00;100703.59;4962123;28;20106;-78
2023/10/18 14:45:16;;;;;;;1.17;0.80;;;;;;;16.01;100.00;100707.56;4969072;28;20157;-79
2023/10/18 14:48:01;;;;;;;1.83;1.73;;;;;;;15.94;100.00;100707.69;4974099;28;20077;-79
2023/10/18 14:50:27;;;;;;;3.10;1.95;;;;;;;15.94;100.00;100710.34;4955394;29;20035;-79
2023/10/18 14:52:53;;;;;;;1.02;0.93;;;;;;;15.83;100.00;100687.59;4967617;28;20050;-79
2023/10/18 14:58:41;;;;;;;2.38;1.85;;;;;;;15.38;100.00;100621.31;4975572;28;20090;-81
2023/10/18 15:01:12;;;;;;;2.42;1.75;;;;;;;15.76;100.00;100691.25;4974753;28;20045;-78
2023/10/18 15:03:40;;;;;;;0.73;0.55;;;;;;;15.73;100.00;100691.31;4975423;28;20483;-76
2023/10/18 15:09:27;;;;;;;2.65;2.45;;;;;;;15.48;100.00;100687.28;4973670;28;20054;-78
2023/10/18 15:11:54;;;;;;;0.45;0.45;;;;;;;14.98;100.00;100606.06;4967940;28;20351;-77
2023/10/18 15:14:21;;;;;;;1.25;0.75;;;;;;;14.88;100.00;100598.28;4961465;28;20530;-75
2023/10/18 15:16:47;;;;;;;0.85;0.82;;;;;;;14.68;100.00;100559.84;4960977;28;20042;-80
2023/10/18 15:19:14;;;;;;;1.00;0.80;;;;;;;15.03;100.00;100643.00;4969968;28;20035;-78
2023/10/18 15:21:46;;;;;;;0.98;0.85;;;;;;;15.17;100.00;100690.34;4971675;28;20483;-81
2023/10/18 15:24:15;;;;;;;1.00;0.60;;;;;;;14.52;100.00;100606.69;4973515;28;20046;-76
2023/10/18 15:26:40;;;;;;;5.60;2.03;;;;;;;14.50;100.00;100610.25;4962329;28;20467;-78
2023/10/18 15:29:08;;;;;;;0.10;0.10;;;;;;;15.06;100.00;100702.88;4973299;28;20130;-76
2023/10/18 15:31:34;;;;;;;0.20;0.20;;;;;;;14.17;100.00;100543.78;4970591;28;20043;-76
2023/10/18 15:37:21;;;;;;;1.45;0.95;;;;;;;14.92;100.00;100684.56;4975006;28;20077;-83
2023/10/18 15:39:47;;;;;;;1.40;1.17;;;;;;;14.33;100.00;100600.75;4974681;28;20074;-83
2023/10/18 15:42:12;;;;;;;8.98;1.23;;;;;;;14.34;100.00;100620.97;4969378;28;20526;-81
2023/10/18 15:44:38;;;;;;;2.28;1.92;;;;;;;14.80;100.00;100714.66;4970041;28;20082;-82
2023/10/18 15:47:04;;;;;;;3.10;1.85;;;;;;;14.17;100.00;100624.72;4974400;28;20039;-81
2023/10/18 15:49:29;;;;;;;3.65;0.95;;;;;;;14.52;100.00;100691.19;4974071;28;20038;-82
2023/10/18 15:51:56;;;;;;;0.43;0.43;;;;;;;14.50;100.00;100687.69;4971564;28;20047;-83
2023/10/18 15:54:23;;;;;;;2.22;1.73;;;;;;;14.01;100.00;100616.97;4971353;28;20170;-77
2023/10/18 15:57:03;;;;;;;2.05;1.85;;;;;;;14.34;100.00;100700.16;4972290;28;20034;-77
2023/10/18 15:59:39;;;;;;;3.53;1.67;;;;;;;14.20;100.00;100678.34;4957423;28;20027;-75
2023/10/18 16:02:11;;;;;;;3.65;2.10;;;;;;;13.19;100.00;100557.97;4967156;28;20034;-79
2023/10/18 16:04:37;;;;;;;1.98;1.85;;;;;;;14.11;100.00;100710.97;4971960;28;20479;-74
2023/10/18 16:07:03;;;;;;;4.03;1.10;;;;;;;14.02;100.00;100732.16;4971054;28;20092;-80
2023/10/18 16:09:29;;;;;;;4.57;1.40;;;;;;;13.57;100.00;100606.84;4973544;28;20408;-73
2023/10/18 16:11:55;;;;;;;0.40;0.40;;;;;;;14.24;100.00;100722.28;4970485;28;20050;-74
2023/10/18 16:14:20;;;;;;;2.78;2.58;;;;;;;14.19;100.00;100716.19;4973950;28;20031;-73
2023/10/18 16:23:41;;;;;;;1.25;0.98;;;;;;;13.87;100.00;100705.94;4974504;28;20510;-75
2023/10/18 16:26:11;;;;;;;2.63;1.88;;;;;;;13.37;100.00;100618.47;4972169;28;20074;-74
2023/10/18 16:28:37;;;;;;;5.07;2.78;;;;;;;13.38;100.00;100629.88;4973605;28;20070;-73
2023/10/18 16:31:10;;;;;;;2.70;2.25;;;;;;;13.23;100.00;100607.13;4973371;28;20046;-72
2023/10/18 16:36:57;;;;;;;3.60;3.03;;;;;;;13.44;100.00;100696.59;4973787;28;20050;-74
2023/10/18 16:39:41;;;;;;;3.97;3.47;;;;;;;12.58;100.00;100561.91;4972280;28;20066;-74
2023/10/18 16:45:31;;;;;;;1.33;1.23;;;;;;;13.48;100.00;100722.03;4973648;28;20037;-73
2023/10/18 16:47:57;;;;;;;4.95;4.05;;;;;;;13.21;100.00;100680.91;4964663;28;20031;-74
2023/10/18 16:50:26;;;;;;;3.28;2.97;;;;;;;13.35;100.00;100698.44;4970773;28;20372;-74
2023/10/18 16:52:52;;;;;;;4.38;3.42;;;;;;;13.43;100.00;100718.56;4969737;28;20047;-74
2023/10/18 17:05:43;;;;;;;3.70;3.33;;;;;;;13.15;100.00;100712.56;4974212;28;20054;-75
2023/10/18 17:08:09;;;;;;;16.48;4.70;;;;;;;13.07;100.00;100703.84;4971783;28;20066;-73
2023/10/18 17:10:35;;;;;;;3.25;2.83;;;;;;;13.03;100.00;100691.56;4972005;28;20047;-74
2023/10/18 17:13:02;;;;;;;3.00;2.65;;;;;;;13.10;100.00;100707.31;4973132;28;20043;-74
2023/10/18 17:18:51;;;;;;;2.72;2.20;;;;;;;12.11;100.00;100595.44;4973634;28;20041;-74
2023/10/18 17:21:17;;;;;;;5.20;3.20;;;;;;;12.62;100.00;100709.31;4967358;28;20081;-74
2023/10/18 17:23:43;;;;;;;5.95;3.00;;;;;;;12.16;100.00;100608.59;4954596;28;20027;-74
2023/10/18 17:26:11;;;;;;;2.45;1.98;;;;;;;12.84;100.00;100717.97;4968415;28;20119;-74
2023/10/18 17:31:58;;;;;;;3.40;3.20;;;;;;;12.14;100.00;100597.19;4973371;28;20066;-75
2023/10/18 17:34:24;;;;;;;4.68;3.67;;;;;;;12.72;100.00;100707.50;4970236;28;20038;-77